createdAt,value
2023-03-29T00:00:34.668Z,1013.84
2023-03-29T00:01:36.492Z,1013.78
2023-03-29T00:02:34.723Z,1013.78
2023-03-29T00:03:34.762Z,1013.81
2023-03-29T00:04:34.657Z,1013.80
2023-03-29T00:05:34.789Z,1013.85
2023-03-29T00:06:34.586Z,1013.80
2023-03-29T00:07:34.592Z,1013.81
2023-03-29T00:08:34.564Z,1013.78
2023-03-29T00:09:34.597Z,1013.76
2023-03-29T00:10:34.562Z,1013.82
2023-03-29T00:11:34.543Z,1013.79
2023-03-29T00:12:34.541Z,1013.83
2023-03-29T00:13:34.515Z,1013.87
2023-03-29T00:14:34.517Z,1013.79
2023-03-29T00:15:34.537Z,1013.83
2023-03-29T00:16:34.520Z,1013.78
2023-03-29T00:17:34.488Z,1013.77
2023-03-29T00:18:34.448Z,1013.77
2023-03-29T00:19:34.451Z,1013.72
2023-03-29T00:20:34.441Z,1013.74
2023-03-29T00:21:34.450Z,1013.69
2023-03-29T00:22:34.405Z,1013.75
2023-03-29T00:23:34.411Z,1013.72
2023-03-29T00:24:34.472Z,1013.67
2023-03-29T00:25:35.386Z,1013.58
2023-03-29T00:26:34.382Z,1013.51
2023-03-29T00:27:34.359Z,1013.57
2023-03-29T00:28:34.337Z,1013.54
2023-03-29T00:29:34.483Z,1013.50
2023-03-29T00:30:35.852Z,1013.59
2023-03-29T00:31:34.334Z,1013.58
2023-03-29T00:32:34.338Z,1013.48
2023-03-29T00:33:34.305Z,1013.45
2023-03-29T00:34:34.311Z,1013.46
2023-03-29T00:35:34.309Z,1013.53
2023-03-29T00:36:35.217Z,1013.53
2023-03-29T00:37:34.264Z,1013.51
2023-03-29T00:38:34.230Z,1013.55
2023-03-29T00:39:34.234Z,1013.55
2023-03-29T00:40:34.252Z,1013.55
2023-03-29T00:41:34.214Z,1013.56
2023-03-29T00:42:34.186Z,1013.56
2023-03-29T00:43:34.188Z,1013.48
2023-03-29T00:44:34.196Z,1013.50
2023-03-29T00:45:34.160Z,1013.53
2023-03-29T00:46:34.164Z,1013.51
2023-03-29T00:47:34.176Z,1013.47
2023-03-29T00:48:34.129Z,1013.46
2023-03-29T00:49:34.153Z,1013.40
2023-03-29T00:50:34.159Z,1013.38
2023-03-29T00:51:34.105Z,1013.41
2023-03-29T00:52:34.076Z,1013.34
2023-03-29T00:53:34.066Z,1013.40
2023-03-29T00:54:34.053Z,1013.42
2023-03-29T00:55:34.164Z,1013.38
2023-03-29T00:56:34.022Z,1013.38
2023-03-29T00:57:34.054Z,1013.38
2023-03-29T00:58:34.004Z,1013.43
2023-03-29T00:59:34.016Z,1013.37
2023-03-29T01:00:33.998Z,1013.40
2023-03-29T01:01:34.267Z,1013.41
2023-03-29T01:02:34.098Z,1013.34
2023-03-29T01:03:34.134Z,1013.37
2023-03-29T01:04:33.971Z,1013.32
2023-03-29T01:05:34.002Z,1013.36
2023-03-29T01:06:34.001Z,1013.31
2023-03-29T01:07:33.914Z,1013.31
2023-03-29T01:08:33.909Z,1013.32
2023-03-29T01:09:33.959Z,1013.29
2023-03-29T01:10:33.886Z,1013.27
2023-03-29T01:11:33.865Z,1013.19
2023-03-29T01:12:33.969Z,1013.18
2023-03-29T01:13:33.848Z,1013.25
2023-03-29T01:14:33.852Z,1013.12
2023-03-29T01:15:33.845Z,1013.23
2023-03-29T01:16:33.826Z,1013.11
2023-03-29T01:17:33.838Z,1013.16
2023-03-29T01:18:33.792Z,1013.21
2023-03-29T01:19:33.796Z,1013.25
2023-03-29T01:20:33.791Z,1013.22
2023-03-29T01:21:33.802Z,1013.20
2023-03-29T01:22:33.772Z,1013.16
2023-03-29T01:23:33.750Z,1013.15
2023-03-29T01:24:33.719Z,1013.16
2023-03-29T01:25:33.771Z,1013.16
2023-03-29T01:26:33.683Z,1013.10
2023-03-29T01:27:33.698Z,1013.16
2023-03-29T01:28:33.683Z,1013.14
2023-03-29T01:29:33.811Z,1013.13
2023-03-29T01:30:33.702Z,1013.16
2023-03-29T01:31:33.700Z,1013.14
2023-03-29T01:32:33.943Z,1013.09
2023-03-29T01:33:34.591Z,1013.11
2023-03-29T01:34:33.612Z,1013.07
2023-03-29T01:35:33.649Z,1013.05
2023-03-29T01:36:33.607Z,1013.08
2023-03-29T01:37:33.621Z,1013.09
2023-03-29T01:38:35.075Z,1013.03
2023-03-29T01:39:33.582Z,1013.04
2023-03-29T01:40:34.549Z,1013.05
2023-03-29T01:41:33.580Z,1013.02
2023-03-29T01:42:33.525Z,1013.00
2023-03-29T01:43:33.532Z,1012.98
2023-03-29T01:44:33.517Z,1012.90
2023-03-29T01:45:33.520Z,1012.78
2023-03-29T01:46:35.031Z,1012.77
2023-03-29T01:47:33.544Z,1012.70
2023-03-29T01:48:33.984Z,1012.73
2023-03-29T01:49:34.897Z,1012.68
2023-03-29T01:50:33.462Z,1012.70
2023-03-29T01:51:33.786Z,1012.77
2023-03-29T01:52:33.418Z,1012.78
2023-03-29T01:53:34.203Z,1012.82
2023-03-29T01:54:33.375Z,1012.81
2023-03-29T01:55:33.393Z,1012.80
2023-03-29T01:56:33.398Z,1012.78
2023-03-29T01:57:33.361Z,1012.83
2023-03-29T01:58:33.347Z,1012.80
2023-03-29T01:59:33.367Z,1012.78
2023-03-29T02:00:33.342Z,1012.83
2023-03-29T02:01:33.388Z,1012.76
2023-03-29T02:02:34.816Z,1012.79
2023-03-29T02:03:33.365Z,1012.81
2023-03-29T02:04:33.307Z,1012.79
2023-03-29T02:05:35.789Z,1012.76
2023-03-29T02:06:33.260Z,1012.74
2023-03-29T02:07:33.235Z,1012.76
2023-03-29T02:08:33.246Z,1012.71
2023-03-29T02:09:33.237Z,1012.74
2023-03-29T02:10:33.239Z,1012.71
2023-03-29T02:11:33.186Z,1012.75
2023-03-29T02:12:33.198Z,1012.63
2023-03-29T02:13:33.155Z,1012.61
2023-03-29T02:14:33.153Z,1012.59
2023-03-29T02:15:33.167Z,1012.56
2023-03-29T02:16:33.126Z,1012.53
2023-03-29T02:17:33.153Z,1012.52
2023-03-29T02:18:33.123Z,1012.52
2023-03-29T02:19:33.085Z,1012.51
2023-03-29T02:20:33.122Z,1012.51
2023-03-29T02:21:33.065Z,1012.52
2023-03-29T02:22:33.106Z,1012.48
2023-03-29T02:23:33.103Z,1012.52
2023-03-29T02:24:33.038Z,1012.50
2023-03-29T02:25:33.195Z,1012.47
2023-03-29T02:26:33.032Z,1012.50
2023-03-29T02:27:33.013Z,1012.43
2023-03-29T02:28:33.014Z,1012.50
2023-03-29T02:29:32.972Z,1012.42
2023-03-29T02:30:33.008Z,1012.38
2023-03-29T02:31:34.533Z,1012.37
2023-03-29T02:32:32.977Z,1012.36
2023-03-29T02:33:32.940Z,1012.39
2023-03-29T02:34:32.948Z,1012.37
2023-03-29T02:35:32.942Z,1012.40
2023-03-29T02:36:32.945Z,1012.39
2023-03-29T02:37:32.908Z,1012.41
2023-03-29T02:38:32.884Z,1012.42
2023-03-29T02:39:32.891Z,1012.32
2023-03-29T02:40:32.878Z,1012.35
2023-03-29T02:41:32.921Z,1012.34
2023-03-29T02:42:32.831Z,1012.34
2023-03-29T02:43:32.820Z,1012.37
2023-03-29T02:44:32.834Z,1012.39
2023-03-29T02:45:32.806Z,1012.37
2023-03-29T02:46:32.868Z,1012.29
2023-03-29T02:47:33.683Z,1012.28
2023-03-29T02:48:32.770Z,1012.38
2023-03-29T02:49:33.015Z,1012.37
2023-03-29T02:50:32.748Z,1012.36
2023-03-29T02:51:32.753Z,1012.26
2023-03-29T02:52:33.026Z,1012.28
2023-03-29T02:53:32.737Z,1012.25
2023-03-29T02:54:32.744Z,1012.27
2023-03-29T02:55:32.723Z,1012.22
2023-03-29T02:56:32.683Z,1012.31
2023-03-29T02:57:32.710Z,1012.34
2023-03-29T02:58:32.695Z,1012.32
2023-03-29T02:59:32.643Z,1012.31
2023-03-29T03:00:32.640Z,1012.40
2023-03-29T03:01:32.661Z,1012.41
2023-03-29T03:02:32.765Z,1012.37
2023-03-29T03:03:32.675Z,1012.33
2023-03-29T03:04:32.642Z,1012.38
2023-03-29T03:05:32.661Z,1012.36
2023-03-29T03:06:33.402Z,1012.40
2023-03-29T03:07:36.681Z,1012.36
2023-03-29T03:08:33.432Z,1012.28
2023-03-29T03:09:32.529Z,1012.31
2023-03-29T03:10:32.532Z,1012.27
2023-03-29T03:11:32.519Z,1012.26
2023-03-29T03:12:32.528Z,1012.22
2023-03-29T03:13:32.501Z,1012.25
2023-03-29T03:14:32.492Z,1012.26
2023-03-29T03:15:32.476Z,1012.21
2023-03-29T03:16:32.510Z,1012.19
2023-03-29T03:17:32.569Z,1012.23
2023-03-29T03:18:32.456Z,1012.19
2023-03-29T03:19:32.446Z,1012.15
2023-03-29T03:20:33.089Z,1012.15
2023-03-29T03:21:32.424Z,1012.11
2023-03-29T03:22:33.857Z,1012.11
2023-03-29T03:23:32.417Z,1012.13
2023-03-29T03:24:32.373Z,1012.10
2023-03-29T03:25:33.331Z,1012.07
2023-03-29T03:26:32.361Z,1012.11
2023-03-29T03:27:32.341Z,1012.06
2023-03-29T03:28:32.377Z,1012.07
2023-03-29T03:29:32.322Z,1012.09
2023-03-29T03:30:32.416Z,1012.10
2023-03-29T03:31:32.313Z,1012.11
2023-03-29T03:32:32.356Z,1012.03
2023-03-29T03:33:32.270Z,1012.03
2023-03-29T03:34:32.276Z,1012.07
2023-03-29T03:35:32.280Z,1012.06
2023-03-29T03:36:32.228Z,1012.06
2023-03-29T03:37:32.213Z,1012.05
2023-03-29T03:38:32.220Z,1011.97
2023-03-29T03:39:32.221Z,1011.97
2023-03-29T03:40:32.191Z,1012.00
2023-03-29T03:41:32.176Z,1012.07
2023-03-29T03:42:32.190Z,1012.06
2023-03-29T03:43:32.143Z,1012.05
2023-03-29T03:44:32.164Z,1012.08
2023-03-29T03:45:32.203Z,1012.10
2023-03-29T03:46:32.128Z,1012.06
2023-03-29T03:47:32.148Z,1012.11
2023-03-29T03:48:36.831Z,1012.10
2023-03-29T03:49:32.079Z,1012.04
2023-03-29T03:50:32.088Z,1012.04
2023-03-29T03:51:32.226Z,1012.04
2023-03-29T03:52:32.046Z,1012.04
2023-03-29T03:53:32.061Z,1011.99
2023-03-29T03:54:33.013Z,1012.09
2023-03-29T03:55:32.013Z,1012.08
2023-03-29T03:56:32.046Z,1012.12
2023-03-29T03:57:32.002Z,1012.07
2023-03-29T03:58:32.002Z,1012.14
2023-03-29T03:59:31.960Z,1012.14
2023-03-29T04:00:31.999Z,1012.07
2023-03-29T04:01:31.958Z,1012.07
2023-03-29T04:02:32.002Z,1012.06
2023-03-29T04:03:32.057Z,1012.06
2023-03-29T04:04:32.016Z,1012.06
2023-03-29T04:05:31.932Z,1012.09
2023-03-29T04:06:31.892Z,1012.01
2023-03-29T04:07:31.956Z,1012.03
2023-03-29T04:08:31.870Z,1012.08
2023-03-29T04:09:31.913Z,1012.06
2023-03-29T04:10:31.869Z,1012.03
2023-03-29T04:11:31.835Z,1012.05
2023-03-29T04:12:31.887Z,1012.05
2023-03-29T04:13:31.815Z,1012.02
2023-03-29T04:14:31.814Z,1012.04
2023-03-29T04:15:31.847Z,1012.04
2023-03-29T04:16:31.819Z,1012.01
2023-03-29T04:17:31.843Z,1012.02
2023-03-29T04:18:31.852Z,1012.04
2023-03-29T04:19:31.741Z,1012.03
2023-03-29T04:20:31.753Z,1012.02
2023-03-29T04:21:31.768Z,1012.08
2023-03-29T04:22:31.747Z,1012.03
2023-03-29T04:23:31.702Z,1012.06
2023-03-29T04:24:31.692Z,1011.99
2023-03-29T04:25:31.680Z,1012.01
2023-03-29T04:26:31.690Z,1012.01
2023-03-29T04:27:31.687Z,1012.01
2023-03-29T04:28:31.663Z,1012.01
2023-03-29T04:29:31.658Z,1011.98
2023-03-29T04:30:31.621Z,1011.96
2023-03-29T04:31:31.768Z,1011.99
2023-03-29T04:32:32.133Z,1012.01
2023-03-29T04:33:31.656Z,1011.98
2023-03-29T04:34:31.614Z,1011.98
2023-03-29T04:35:31.575Z,1011.95
2023-03-29T04:36:31.570Z,1011.95
2023-03-29T04:37:31.543Z,1011.98
2023-03-29T04:38:31.547Z,1011.93
2023-03-29T04:39:31.547Z,1011.96
2023-03-29T04:40:31.581Z,1011.94
2023-03-29T04:41:31.504Z,1011.95
2023-03-29T04:42:31.492Z,1011.91
2023-03-29T04:43:31.491Z,1011.96
2023-03-29T04:44:31.484Z,1011.95
2023-03-29T04:45:31.467Z,1011.89
2023-03-29T04:46:31.592Z,1011.90
2023-03-29T04:47:31.448Z,1011.88
2023-03-29T04:48:31.423Z,1011.84
2023-03-29T04:49:31.418Z,1011.83
2023-03-29T04:50:31.420Z,1011.82
2023-03-29T04:51:32.394Z,1011.82
2023-03-29T04:52:31.389Z,1011.76
2023-03-29T04:53:31.361Z,1011.81
2023-03-29T04:54:31.363Z,1011.76
2023-03-29T04:55:31.360Z,1011.80
2023-03-29T04:56:31.345Z,1011.74
2023-03-29T04:57:31.519Z,1011.81
2023-03-29T04:58:32.533Z,1011.72
2023-03-29T04:59:31.337Z,1011.71
2023-03-29T05:00:31.310Z,1011.73
2023-03-29T05:01:31.418Z,1011.66
2023-03-29T05:02:31.305Z,1011.67
2023-03-29T05:03:31.284Z,1011.62
2023-03-29T05:04:31.320Z,1011.65
2023-03-29T05:05:31.284Z,1011.58
2023-03-29T05:06:32.473Z,1011.62
2023-03-29T05:07:32.219Z,1011.62
2023-03-29T05:08:31.234Z,1011.61
2023-03-29T05:09:32.562Z,1011.60
2023-03-29T05:10:31.215Z,1011.58
2023-03-29T05:11:31.171Z,1011.65
2023-03-29T05:12:31.256Z,1011.60
2023-03-29T05:13:31.150Z,1011.61
2023-03-29T05:14:31.134Z,1011.63
2023-03-29T05:15:31.155Z,1011.67
2023-03-29T05:16:31.207Z,1011.59
2023-03-29T05:17:31.159Z,1011.63
2023-03-29T05:18:31.100Z,1011.57
2023-03-29T05:19:31.107Z,1011.59
2023-03-29T05:20:31.101Z,1011.56
2023-03-29T05:21:31.086Z,1011.58
2023-03-29T05:22:31.063Z,1011.58
2023-03-29T05:23:31.034Z,1011.53
2023-03-29T05:24:31.025Z,1011.57
2023-03-29T05:25:31.104Z,1011.56
2023-03-29T05:26:31.038Z,1011.63
2023-03-29T05:27:31.073Z,1011.59
2023-03-29T05:28:30.994Z,1011.58
2023-03-29T05:29:30.959Z,1011.59
2023-03-29T05:30:30.957Z,1011.56
2023-03-29T05:31:30.953Z,1011.52
2023-03-29T05:32:32.478Z,1011.55
2023-03-29T05:33:30.941Z,1011.54
2023-03-29T05:34:30.903Z,1011.50
2023-03-29T05:35:30.974Z,1011.47
2023-03-29T05:36:30.890Z,1011.46
2023-03-29T05:37:32.517Z,1011.42
2023-03-29T05:38:30.890Z,1011.39
2023-03-29T05:39:30.865Z,1011.45
2023-03-29T05:40:30.898Z,1011.43
2023-03-29T05:41:30.842Z,1011.42
2023-03-29T05:42:30.845Z,1011.46
2023-03-29T05:43:30.860Z,1011.48
2023-03-29T05:44:30.894Z,1011.46
2023-03-29T05:45:30.828Z,1011.40
2023-03-29T05:46:30.801Z,1011.42
2023-03-29T05:47:30.804Z,1011.45
2023-03-29T05:48:30.773Z,1011.43
2023-03-29T05:49:30.750Z,1011.48
2023-03-29T05:50:30.796Z,1011.41
2023-03-29T05:51:30.741Z,1011.47
2023-03-29T05:52:32.185Z,1011.43
2023-03-29T05:53:30.704Z,1011.45
2023-03-29T05:54:30.711Z,1011.47
2023-03-29T05:55:30.688Z,1011.49
2023-03-29T05:56:30.716Z,1011.47
2023-03-29T05:57:30.672Z,1011.44
2023-03-29T05:58:30.671Z,1011.35
2023-03-29T05:59:30.649Z,1011.39
2023-03-29T06:00:31.600Z,1011.42
2023-03-29T06:01:30.626Z,1011.47
2023-03-29T06:02:30.717Z,1011.42
2023-03-29T06:03:30.716Z,1011.46
2023-03-29T06:04:30.716Z,1011.38
2023-03-29T06:05:30.566Z,1011.38
2023-03-29T06:06:30.567Z,1011.41
2023-03-29T06:07:30.590Z,1011.40
2023-03-29T06:08:31.393Z,1011.37
2023-03-29T06:09:30.544Z,1011.39
2023-03-29T06:10:31.333Z,1011.34
2023-03-29T06:11:30.548Z,1011.37
2023-03-29T06:12:30.567Z,1011.33
2023-03-29T06:13:30.495Z,1011.28
2023-03-29T06:14:30.497Z,1011.25
2023-03-29T06:15:30.471Z,1011.33
2023-03-29T06:16:30.477Z,1011.32
2023-03-29T06:17:30.672Z,1011.35
2023-03-29T06:18:30.442Z,1011.38
2023-03-29T06:19:30.472Z,1011.36
2023-03-29T06:20:30.412Z,1011.38
2023-03-29T06:21:30.432Z,1011.32
2023-03-29T06:22:30.542Z,1011.40
2023-03-29T06:23:30.578Z,1011.37
2023-03-29T06:24:30.371Z,1011.31
2023-03-29T06:25:30.392Z,1011.29
2023-03-29T06:26:30.358Z,1011.41
2023-03-29T06:27:30.324Z,1011.39
2023-03-29T06:28:30.362Z,1011.44
2023-03-29T06:29:30.312Z,1011.46
2023-03-29T06:30:30.312Z,1011.49
2023-03-29T06:31:30.333Z,1011.54
2023-03-29T06:32:30.295Z,1011.55
2023-03-29T06:33:30.303Z,1011.53
2023-03-29T06:34:30.245Z,1011.51
2023-03-29T06:35:30.329Z,1011.53
2023-03-29T06:36:30.242Z,1011.44
2023-03-29T06:37:30.237Z,1011.47
2023-03-29T06:38:30.207Z,1011.49
2023-03-29T06:39:30.202Z,1011.50
2023-03-29T06:40:30.242Z,1011.50
2023-03-29T06:41:30.195Z,1011.48
2023-03-29T06:42:30.161Z,1011.56
2023-03-29T06:43:30.170Z,1011.55
2023-03-29T06:44:31.642Z,1011.53
2023-03-29T06:45:30.148Z,1011.54
2023-03-29T06:46:30.172Z,1011.56
2023-03-29T06:47:30.145Z,1011.57
2023-03-29T06:48:30.097Z,1011.59
2023-03-29T06:49:30.924Z,1011.58
2023-03-29T06:50:30.075Z,1011.55
2023-03-29T06:51:30.064Z,1011.57
2023-03-29T06:52:30.052Z,1011.48
2023-03-29T06:53:30.074Z,1011.52
2023-03-29T06:54:30.415Z,1011.53
2023-03-29T06:55:30.029Z,1011.56
2023-03-29T06:56:30.019Z,1011.58
2023-03-29T06:57:30.074Z,1011.59
2023-03-29T06:58:30.003Z,1011.60
2023-03-29T06:59:30.000Z,1011.59
2023-03-29T07:00:29.998Z,1011.62
2023-03-29T07:01:30.049Z,1011.64
2023-03-29T07:02:30.784Z,1011.58
2023-03-29T07:03:30.091Z,1011.57
2023-03-29T07:04:30.029Z,1011.62
2023-03-29T07:05:30.167Z,1011.54
2023-03-29T07:06:29.898Z,1011.55
2023-03-29T07:07:29.885Z,1011.55
2023-03-29T07:08:30.253Z,1011.60
2023-03-29T07:09:29.899Z,1011.56
2023-03-29T07:10:31.352Z,1011.61
2023-03-29T07:11:31.320Z,1011.70
2023-03-29T07:12:31.309Z,1011.71
2023-03-29T07:13:29.931Z,1011.68
2023-03-29T07:14:29.868Z,1011.76
2023-03-29T07:15:29.822Z,1011.76
2023-03-29T07:16:29.805Z,1011.74
2023-03-29T07:17:29.825Z,1011.70
2023-03-29T07:18:29.763Z,1011.76
2023-03-29T07:19:29.776Z,1011.66
2023-03-29T07:20:29.874Z,1011.76
2023-03-29T07:21:29.758Z,1011.69
2023-03-29T07:22:31.397Z,1011.68
2023-03-29T07:23:29.708Z,1011.69
2023-03-29T07:24:29.724Z,1011.63
2023-03-29T07:25:30.522Z,1011.72
2023-03-29T07:26:30.225Z,1011.68
2023-03-29T07:27:29.661Z,1011.76
2023-03-29T07:28:29.711Z,1011.70
2023-03-29T07:29:29.660Z,1011.69
2023-03-29T07:30:31.975Z,1011.76
2023-03-29T07:31:37.876Z,1011.68
2023-03-29T07:32:31.181Z,1011.64
2023-03-29T07:33:29.689Z,1011.69
2023-03-29T07:34:29.586Z,1011.63
2023-03-29T07:35:30.704Z,1011.68
2023-03-29T07:36:29.603Z,1011.61
2023-03-29T07:37:29.589Z,1011.60
2023-03-29T07:38:29.545Z,1011.68
2023-03-29T07:39:30.353Z,1011.73
2023-03-29T07:40:29.501Z,1011.72
2023-03-29T07:41:29.529Z,1011.71
2023-03-29T07:42:29.551Z,1011.72
2023-03-29T07:43:29.486Z,1011.72
2023-03-29T07:44:29.504Z,1011.75
2023-03-29T07:45:29.485Z,1011.73
2023-03-29T07:46:30.940Z,1011.73
2023-03-29T07:47:29.664Z,1011.71
2023-03-29T07:48:29.481Z,1011.66
2023-03-29T07:49:29.424Z,1011.76
2023-03-29T07:50:29.416Z,1011.71
2023-03-29T07:51:29.417Z,1011.68
2023-03-29T07:52:29.374Z,1011.74
2023-03-29T07:53:29.380Z,1011.75
2023-03-29T07:54:30.190Z,1011.77
2023-03-29T07:55:30.823Z,1011.81
2023-03-29T07:56:29.461Z,1011.79
2023-03-29T07:57:29.490Z,1011.73
2023-03-29T07:58:29.332Z,1011.74
2023-03-29T07:59:29.357Z,1011.70
2023-03-29T08:00:29.398Z,1011.74
2023-03-29T08:01:29.330Z,1011.72
2023-03-29T08:02:30.781Z,1011.71
2023-03-29T08:03:29.297Z,1011.74
2023-03-29T08:04:30.300Z,1011.77
2023-03-29T08:05:40.607Z,1011.80
2023-03-29T08:06:30.270Z,1011.78
2023-03-29T08:07:29.218Z,1011.79
2023-03-29T08:08:29.214Z,1011.83
2023-03-29T08:09:29.212Z,1011.79
2023-03-29T08:10:29.173Z,1011.84
2023-03-29T08:11:29.183Z,1011.81
2023-03-29T08:12:29.601Z,1011.84
2023-03-29T08:13:29.253Z,1011.86
2023-03-29T08:14:29.175Z,1011.80
2023-03-29T08:15:29.152Z,1011.84
2023-03-29T08:16:29.134Z,1011.81
2023-03-29T08:17:30.671Z,1011.79
2023-03-29T08:18:29.108Z,1011.76
2023-03-29T08:19:29.092Z,1011.80
2023-03-29T08:20:29.130Z,1011.86
2023-03-29T08:21:29.060Z,1011.80
2023-03-29T08:22:30.517Z,1011.79
2023-03-29T08:23:29.058Z,1011.75
2023-03-29T08:24:29.036Z,1011.88
2023-03-29T08:25:29.046Z,1011.89
2023-03-29T08:26:29.041Z,1011.87
2023-03-29T08:27:29.028Z,1011.88
2023-03-29T08:28:29.017Z,1011.83
2023-03-29T08:29:29.044Z,1011.84
2023-03-29T08:30:28.954Z,1011.82
2023-03-29T08:31:29.028Z,1011.78
2023-03-29T08:32:29.029Z,1011.75
2023-03-29T08:33:28.972Z,1011.71
2023-03-29T08:34:28.912Z,1011.67
2023-03-29T08:35:29.090Z,1011.72
2023-03-29T08:36:28.893Z,1011.67
2023-03-29T08:37:28.893Z,1011.67
2023-03-29T08:38:28.889Z,1011.70
2023-03-29T08:39:28.914Z,1011.70
2023-03-29T08:40:28.857Z,1011.63
2023-03-29T08:41:28.850Z,1011.65
2023-03-29T08:42:30.308Z,1011.69
2023-03-29T08:43:28.824Z,1011.62
2023-03-29T08:44:28.825Z,1011.64
2023-03-29T08:45:28.802Z,1011.57
2023-03-29T08:46:34.544Z,1011.59
2023-03-29T08:47:29.784Z,1011.59
2023-03-29T08:48:28.833Z,1011.58
2023-03-29T08:49:28.798Z,1011.58
2023-03-29T08:50:28.751Z,1011.55
2023-03-29T08:51:28.739Z,1011.54
2023-03-29T08:52:29.559Z,1011.59
2023-03-29T08:53:29.512Z,1011.60
2023-03-29T08:54:28.723Z,1011.53
2023-03-29T08:55:28.701Z,1011.52
2023-03-29T08:56:32.767Z,1011.48
2023-03-29T08:57:28.778Z,1011.50
2023-03-29T08:58:28.676Z,1011.51
2023-03-29T08:59:28.654Z,1011.47
2023-03-29T09:00:28.634Z,1011.48
2023-03-29T09:01:28.647Z,1011.48
2023-03-29T09:02:28.715Z,1011.53
2023-03-29T09:03:29.650Z,1011.56
2023-03-29T09:04:28.595Z,1011.55
2023-03-29T09:05:28.649Z,1011.59
2023-03-29T09:06:28.601Z,1011.56
2023-03-29T09:07:28.552Z,1011.56
2023-03-29T09:08:28.566Z,1011.57
2023-03-29T09:09:28.592Z,1011.59
2023-03-29T09:10:28.509Z,1011.55
2023-03-29T09:11:28.546Z,1011.54
2023-03-29T09:12:28.498Z,1011.62
2023-03-29T09:13:28.611Z,1011.60
2023-03-29T09:14:28.459Z,1011.61
2023-03-29T09:15:29.939Z,1011.59
2023-03-29T09:16:28.499Z,1011.62
2023-03-29T09:17:29.472Z,1011.62
2023-03-29T09:18:28.431Z,1011.62
2023-03-29T09:19:28.461Z,1011.63
2023-03-29T09:20:28.406Z,1011.60
2023-03-29T09:21:28.616Z,1011.62
2023-03-29T09:22:28.370Z,1011.58
2023-03-29T09:23:28.417Z,1011.57
2023-03-29T09:24:29.846Z,1011.62
2023-03-29T09:25:28.415Z,1011.60
2023-03-29T09:26:28.335Z,1011.59
2023-03-29T09:27:28.314Z,1011.55
2023-03-29T09:28:28.317Z,1011.55
2023-03-29T09:29:29.305Z,1011.50
2023-03-29T09:30:28.272Z,1011.46
2023-03-29T09:31:28.353Z,1011.40
2023-03-29T09:32:28.363Z,1011.41
2023-03-29T09:33:28.257Z,1011.38
2023-03-29T09:34:28.241Z,1011.46
2023-03-29T09:35:28.265Z,1011.36
2023-03-29T09:36:28.218Z,1011.43
2023-03-29T09:37:28.209Z,1011.48
2023-03-29T09:38:28.199Z,1011.41
2023-03-29T09:39:28.182Z,1011.44
2023-03-29T09:40:28.173Z,1011.41
2023-03-29T09:41:28.242Z,1011.45
2023-03-29T09:42:28.488Z,1011.46
2023-03-29T09:43:28.138Z,1011.39
2023-03-29T09:44:30.781Z,1011.39
2023-03-29T09:45:28.158Z,1011.38
2023-03-29T09:46:28.102Z,1011.42
2023-03-29T09:47:28.124Z,1011.48
2023-03-29T09:48:28.083Z,1011.44
2023-03-29T09:49:28.083Z,1011.38
2023-03-29T09:50:31.489Z,1011.39
2023-03-29T09:51:28.143Z,1011.33
2023-03-29T09:52:28.023Z,1011.28
2023-03-29T09:53:28.025Z,1011.33
2023-03-29T09:54:28.031Z,1011.38
2023-03-29T09:55:28.958Z,1011.41
2023-03-29T09:56:28.081Z,1011.41
2023-03-29T09:57:28.817Z,1011.33
2023-03-29T09:58:27.975Z,1011.35
2023-03-29T09:59:27.989Z,1011.38
2023-03-29T10:00:27.940Z,1011.46
2023-03-29T10:01:27.998Z,1011.45
2023-03-29T10:02:27.957Z,1011.54
2023-03-29T10:03:27.923Z,1011.54
2023-03-29T10:04:27.934Z,1011.49
2023-03-29T10:05:27.898Z,1011.48
2023-03-29T10:06:27.908Z,1011.44
2023-03-29T10:07:27.885Z,1011.45
2023-03-29T10:08:27.861Z,1011.36
2023-03-29T10:09:27.847Z,1011.29
2023-03-29T10:10:27.823Z,1011.27
2023-03-29T10:11:27.820Z,1011.24
2023-03-29T10:12:27.823Z,1011.22
2023-03-29T10:13:27.820Z,1011.19
2023-03-29T10:14:27.785Z,1011.15
2023-03-29T10:15:29.999Z,1011.20
2023-03-29T10:16:28.670Z,1011.21
2023-03-29T10:17:28.221Z,1011.20
2023-03-29T10:18:27.767Z,1011.13
2023-03-29T10:19:27.737Z,1011.21
2023-03-29T10:20:27.755Z,1011.27
2023-03-29T10:21:27.754Z,1011.30
2023-03-29T10:22:27.777Z,1011.27
2023-03-29T10:23:27.737Z,1011.34
2023-03-29T10:24:27.670Z,1011.29
2023-03-29T10:25:27.651Z,1011.28
2023-03-29T10:26:27.753Z,1011.24
2023-03-29T10:27:27.650Z,1011.23
2023-03-29T10:28:27.633Z,1011.18
2023-03-29T10:29:27.680Z,1011.22
2023-03-29T10:30:27.601Z,1011.19
2023-03-29T10:31:27.619Z,1011.29
2023-03-29T10:32:27.589Z,1011.25
2023-03-29T10:33:27.802Z,1011.29
2023-03-29T10:34:27.610Z,1011.22
2023-03-29T10:35:27.580Z,1011.30
2023-03-29T10:36:27.581Z,1011.28
2023-03-29T10:37:27.521Z,1011.28
2023-03-29T10:38:27.519Z,1011.33
2023-03-29T10:39:27.558Z,1011.30
2023-03-29T10:40:27.517Z,1011.28
2023-03-29T10:41:28.978Z,1011.25
2023-03-29T10:42:27.518Z,1011.28
2023-03-29T10:43:27.472Z,1011.24
2023-03-29T10:44:27.452Z,1011.27
2023-03-29T10:45:27.437Z,1011.23
2023-03-29T10:46:27.466Z,1011.12
2023-03-29T10:47:27.453Z,1011.16
2023-03-29T10:48:27.444Z,1011.16
2023-03-29T10:49:27.390Z,1011.12
2023-03-29T10:50:27.396Z,1011.15
2023-03-29T10:51:27.364Z,1011.12
2023-03-29T10:52:27.390Z,1011.15
2023-03-29T10:53:27.347Z,1011.14
2023-03-29T10:54:27.398Z,1011.09
2023-03-29T10:55:27.327Z,1011.18
2023-03-29T10:56:27.350Z,1011.16
2023-03-29T10:57:28.833Z,1011.16
2023-03-29T10:58:27.471Z,1011.16
2023-03-29T10:59:27.274Z,1011.15
2023-03-29T11:00:27.279Z,1011.12
2023-03-29T11:01:27.326Z,1011.13
2023-03-29T11:02:27.358Z,1011.05
2023-03-29T11:03:27.498Z,1011.03
2023-03-29T11:04:27.226Z,1010.93
2023-03-29T11:05:27.241Z,1010.96
2023-03-29T11:06:27.221Z,1010.84
2023-03-29T11:07:27.231Z,1010.85
2023-03-29T11:08:29.688Z,1010.83
2023-03-29T11:09:27.194Z,1010.84
2023-03-29T11:10:27.161Z,1010.85
2023-03-29T11:11:27.144Z,1010.84
2023-03-29T11:12:28.136Z,1010.82
2023-03-29T11:13:27.129Z,1010.81
2023-03-29T11:14:27.133Z,1010.80
2023-03-29T11:15:28.175Z,1010.79
2023-03-29T11:16:27.160Z,1010.82
2023-03-29T11:17:28.203Z,1010.80
2023-03-29T11:18:27.085Z,1010.83
2023-03-29T11:19:27.084Z,1010.81
2023-03-29T11:20:27.063Z,1010.78
2023-03-29T11:21:27.012Z,1010.81
2023-03-29T11:22:27.100Z,1010.86
2023-03-29T11:23:27.008Z,1010.78
2023-03-29T11:24:27.966Z,1010.82
2023-03-29T11:25:29.517Z,1010.85
2023-03-29T11:26:26.979Z,1010.87
2023-03-29T11:27:26.980Z,1010.86
2023-03-29T11:28:26.976Z,1010.89
2023-03-29T11:29:26.963Z,1010.87
2023-03-29T11:30:26.940Z,1010.85
2023-03-29T11:31:26.951Z,1010.88
2023-03-29T11:32:29.750Z,1010.88
2023-03-29T11:33:27.867Z,1010.89
2023-03-29T11:34:26.911Z,1010.85
2023-03-29T11:35:26.872Z,1010.79
2023-03-29T11:36:26.868Z,1010.81
2023-03-29T11:37:26.856Z,1010.70
2023-03-29T11:38:26.864Z,1010.76
2023-03-29T11:39:26.831Z,1010.71
2023-03-29T11:40:26.856Z,1010.69
2023-03-29T11:41:26.795Z,1010.78
2023-03-29T11:42:26.804Z,1010.63
2023-03-29T11:43:26.779Z,1010.68
2023-03-29T11:44:26.786Z,1010.62
2023-03-29T11:45:26.792Z,1010.64
2023-03-29T11:46:26.964Z,1010.54
2023-03-29T11:47:26.779Z,1010.50
2023-03-29T11:48:26.751Z,1010.52
2023-03-29T11:49:26.708Z,1010.48
2023-03-29T11:50:26.722Z,1010.52
2023-03-29T11:51:26.697Z,1010.54
2023-03-29T11:52:26.733Z,1010.52
2023-03-29T11:53:26.698Z,1010.48
2023-03-29T11:54:26.696Z,1010.46
2023-03-29T11:55:26.637Z,1010.41
2023-03-29T11:56:26.637Z,1010.42
2023-03-29T11:57:26.662Z,1010.37
2023-03-29T11:58:26.646Z,1010.41
2023-03-29T11:59:27.571Z,1010.37
2023-03-29T12:00:26.602Z,1010.39
2023-03-29T12:01:26.637Z,1010.38
2023-03-29T12:02:26.665Z,1010.38
2023-03-29T12:03:26.636Z,1010.38
2023-03-29T12:04:27.585Z,1010.35
2023-03-29T12:05:26.534Z,1010.33